LiveATC.Net - Listen to live air traffic control over the Internet!

Airport/ARTCC Code
Frequency Search
(e.g., 124.400, 128.75)
Site-wide search
 


Browse Feeds
Top 50 Feeds
Coverage Map
Bad Weather Areas

LiveATC FAQ
Offer LiveATC feed
Contact LiveATC.net
Press Inquiries

LiveATC on iPhone
LiveATC on Android

Windows Phone
Windows 8/10

LiveATC Mobile
(Mobile browser)

ATC Audio Archives
Interesting Recordings

LiveATC Forums

Home Page
About LiveATC.net
Make a Donation
Terms of Use
Privacy Policy

Canadian Air Freqs

AIRMETs/SIGMETs

FAA Airport Status
Nat'l Airspace Status
Arrival Demand Charts


Server Software By:
Icecast.org
Liquidsoap


Current Potentially Bad Weather Airports
(updated every 30 minutes - sorted alphabetically by ICAO code)



This page lists LiveATC.net airport areas that may be interesting to listen to because of challenging flying (weather) conditions. Challenging weather conditions include low ceilings, limited visibility, high or gusty winds, or thunderstorms.

Updated: Sun Jan 26 03:40:01 UTC 2020
Click on airport name to go to that airport area's feeds.

CYAM ATIS Sault Ste. Marie Airport (Sault Ste. Marie, CA-ON)
WX MAP UNAVAILABLENearest METAR:
CYAM 260313Z 27005KT 3/8SM R12/2800FT/N -SHSN FG VV002 00/00 A2970 RMK FG8 VIS VRB 1/4 - 1/2 CIG VRB 1-3 CVCTV CLD EMBD SLP068
CYHZ Del/Gnd/Twr/App #1 Halifax International Airport (Halifax, CA-NS)
WX MAP UNAVAILABLENearest METAR:
CYHZ 260300Z 13013G19KT 15SM OVC008 M02/M03 A3023 RMK ST8 SLP248
CYMX Ground/Radio Montreal-Mirabel International Airport (Montreal, CA-QC)
cymxNearest METAR:
CYMX 260300Z 05010G15KT 2SM -SN OVC004 M01/M01 A2982 RMK SN4SF4 /S03/ SLP104
CYOO Ground Oshawa Municipal Airport (Oshawa, CA-ON)
cyooNearest METAR:
CYOO 260300Z AUTO VRB02KT 1/4SM FG VV002 01/01 A2976 RMK SLP083
CYOW Gnd/Twr/App Ottawa MacDonald Cartier International Airport (Ottawa, CA-ON)
cyowNearest METAR:
CYOW 260314Z 08014KT 5SM -RASN BR OVC005 00/M00 A2974 RMK SF8 CIG VRB 4-6 SLP080
CYPG Tower Southport Airfield (Portage La Prairie, CA-MB)
WX MAP UNAVAILABLENearest METAR:
CYPG 242300Z 19008KT 12SM -SN OVC008 M07/M08 A3007 RMK ST8 LAST OBS/NEXT 271200 UTC PCPN VRY LGT SLP204
CYPQ UNICOM/Guard Peterborough Airport (Peterborough, CA-ON)
cypqNearest METAR:
CYPQ 260325Z AUTO 21002KT 3SM -SN OVC026 00/00 A2973 RMK ICG PAST HR SLP076
CYQB App/Dep (Terminal/124.0) Quebec Jean Lesage International Airport (Quebec, CA-QC)
cyqbNearest METAR:
CYQB 260318Z 06015G22KT 3/4SM R06/P6000FT/D -SHSN FEW006 VV017 M01/M03 A2999 RMK ST2SN6 CVCTV CLD EMBD PRESFR SLP163
CYQI Moncton Center Low/High Yarmouth Airport (Yarmouth, CA-NS)
WX MAP UNAVAILABLENearest METAR:
CYQI 260300Z 10014G22KT 15SM OVC008 01/00 A3011 RMK ST8 SLP200
CYQM App/Dep Greater Moncton International Airport (Moncton, CA-NB)
cyqmNearest METAR:
CYQM 260300Z 15008KT 15SM OVC008 M02/M04 A3021 RMK SF8 SLP237
CYRQ CTAF Trois Rivieres Airport (Trois-Rivieres, CA-QC)
WX MAP UNAVAILABLENearest METAR:
CYRQ 260313Z AUTO 06012G17KT 2SM -SN OVC007 M01/M01 A2990 RMK ICG SLP131
CYSB Gnd/Twr/Center Sudbury Airport (Sudbury, CA-ON)
WX MAP UNAVAILABLENearest METAR:
CYSB 260300Z 14005KT 1 1/2SM -SN BR OVC002 M00/M00 A2967 RMK SF8 SLP064
CYUL Approach/Departure Pierre Elliott Trudeau International Airport (Montreal, CA-QC)
cyulNearest METAR:
CYUL 260300Z 05011KT 7SM -SN BKN009 BKN014 OVC018 01/M00 A2981 RMK SF5SC2SC1 SLP098
CZUL ACC (Noranda Sector) Timmins Airport (Timmins, CA-QC)
WX MAP UNAVAILABLENearest METAR:
CYTS 260305Z 10004KT 1SM R03/P6000FT/U -SN VV002 M00/M00 A2969 RMK SN8 SLP070
CYVO Gnd/RDO/Center Val-D'Or Airport (Val-D'Or, CA-QC)
WX MAP UNAVAILABLENearest METAR:
CYVO 260300Z 12008KT 15SM -SN SCT011 OVC016 M00/M01 A2974 RMK CF4SC4 PCPN VRY LGT LAST STFD OBS/NEXT 261100UTC SLP091
CYXU App/Dep (London Sector) London International Airport (London, CA-ON)
cyxuNearest METAR:
CYXU 260300Z 21008KT 7SM -SN BKN005 OVC008 00/M00 A2976 RMK SF6SC2 SLP089
CYYB Toronto Center North Bay Airport (North Bay, CA-ON)
WX MAP UNAVAILABLENearest METAR:
CYYB 260300Z 11008KT 2SM -SN OVC006 M01/M02 A2968 RMK SN3SC5 LAST STFD OBS/NEXT 261200 UTC SLP068
CYZF Ground/Tower Yellowknife Airport (Yellowknife, CA-NT)
WX MAP UNAVAILABLENearest METAR:
CYZF 260300Z 04003KT 3/4SM R34/P6000FT/U -SN BR SCT002 OVC007 M12/M14 A2988 RMK SC4SC4 SLP144
CYZX App/Dep/PAR CFB Greenwood Airport (Greenwood, CA-NS)
WX MAP UNAVAILABLENearest METAR:
CYZX 260300Z 13007KT 10SM OVC009 M01/M02 A3023 RMK SC8 SLP238
EHAM App/Dep TMA East Schiphol International Airport (Amsterdam, Netherlands)
WX MAP UNAVAILABLENearest METAR:
EHAM 260325Z 16009KT 1200 R18C/P2000N R27/P2000N R18R/P2000U R06/P2000N PRFG BR BKN001 OVC002 01/01 Q1016 NOSIG
EHEH Approach #2 Eindhoven Airport (Eindhoven, Netherlands)
WX MAP UNAVAILABLENearest METAR:
EHEH 260325Z AUTO 13006KT 100V160 1000 BR OVC001 01/01 Q1017 RED
EHGG Approach Groningen Airport Eelde (Groningen, Netherlands)
WX MAP UNAVAILABLENearest METAR:
EHGG 260325Z AUTO 16007KT 130V200 1800 BR OVC002 01/00 Q1017
EHLE Tower Lelystad Airport (Lelystad, Netherlands)
WX MAP UNAVAILABLENearest METAR:
EHLE 260325Z AUTO 15009KT 1700 FG OVC001 01/01 Q1016
EHRD Del/Twr Rotterdam The Hague Airport (Rotterdam, Netherlands)
WX MAP UNAVAILABLENearest METAR:
EHRD 260325Z AUTO 14006KT 4100 BR FEW003 BKN004 OVC005 03/02 Q1016 BECMG 0600 FG VV000
EHVL CTAF/Range Control Vlieland Heliport (Vlieland, Netherlands)
WX MAP UNAVAILABLENearest METAR:
EHVL 260325Z AUTO 17017KT 0750 FG VV000 02/02 Q1015 RED
ENCN Tower/Approach Kristiansand Airport - Kjevik (Kristiansand, Norway)
WX MAP UNAVAILABLENearest METAR:
ENCN 260320Z AUTO 22010KT 9999 FEW005/// OVC009/// 06/05 Q1008
ENEV Twr/App/ACC Harstad/Narvik Airport (Evenes, Norway)
WX MAP UNAVAILABLENearest METAR:
ENEV 260320Z AUTO VRB03KT 9999 NCD M06/M12 Q1001 RMK WIND 1400FT 08021G32KT
ENGM Approach Oslo Gardermoen Airport (Oslo, Norway)
WX MAP UNAVAILABLENearest METAR:
ENGM 260320Z 19010KT 9999 OVC008 04/03 Q1004
ENTO Tower/App Sandefjord Airport - Torp (Sandefjord, Norway)
WX MAP UNAVAILABLENearest METAR:
ENTO 260320Z AUTO 19008KT 9999 OVC009/// 05/04 Q1006
EPKK Tower/App John Paul II Balice International Airport (Krakow, Poland)
WX MAP UNAVAILABLENearest METAR:
EPKK 260300Z 25006KT 5000 BR OVC006 M03/M04 Q1021
EPKT Del/Twr/App Katowice International Airport (Katowice, Poland)
WX MAP UNAVAILABLENearest METAR:
EPKT 260300Z 18005KT 3000 BR OVC004 M03/M04 Q1020
EPLL Tower Lublinek Airport (Lodz, Poland)
WX MAP UNAVAILABLENearest METAR:
EPLL 260300Z 22003KT 190V280 2800 BR OVC002 M01/M01 Q1020
EPWA Tower #2 Frederic Chopin Airport (Warsaw, Poland)
WX MAP UNAVAILABLENearest METAR:
EPWA 260300Z VRB02KT 3500 -DZ BR OVC004 00/M00 Q1021 TEMPO 2500 DZ BR
ESMS Tower Malmo Airport (Svedala, Sweden)
WX MAP UNAVAILABLENearest METAR:
ESMS 260320Z AUTO 25010KT 4000 BR OVC004/// 04/04 Q1015
KACK Tower Nantucket Memorial Airport (Nantucket, US-MA)
kackNearest METAR:
KACK 260253Z AUTO 15018KT 1 1/4SM R24/4500V6000FT -RA BR OVC003 09/08 A2977 RMK AO2 SLP080 P0002 60018 T00940083 56038
KAPN App/Dep/ZMP Alpena County Regional Airport (Alpena, US-MI)
kapnNearest METAR:
KAPN 260310Z AUTO 31004KT 10SM OVC009 02/01 A2971 RMK AO2 T00220011
KARB Gnd/Twr Ann Arbor Municipal Airport (Ann Arbor, US-MI)
karbNearest METAR:
KARB 260316Z AUTO 23006KT 2SM -SN BR BKN006 BKN011 OVC019 01/M01 A2979 RMK AO2 P0001 T00061006
KASH Ground/FBO Boire Field Airport (Nashua, US-NH)
kashNearest METAR:
KASH 260320Z AUTO VRB03KT 2 1/2SM -RA BR BKN007 OVC012 06/06 A2975 RMK AO2 VIS 2V3 CIG 003V010 PNO $
KAUG Del/CTAF Augusta State Airport (Augusta, US-ME)
kaugNearest METAR:
KAUG 260317Z AUTO 06009KT 5SM -RA BR OVC004 02/01 A2993 RMK AO2 PRESFR P0001 T00170011
NORCAL Approach (Expo) Auburn Municipal Airport (Auburn, US-CA)
kaunNearest METAR:
KAUN 260315Z AUTO 00000KT 3SM BR OVC006 12/11 A3010 RMK A01
KBAZ Tower New Braunfels Municipal Airport (New Braunfels, US-TX)
kbazNearest METAR:
KBAZ 260251Z AUTO 12004KT 8SM -RA OVC008 16/14 A3001 RMK AO2 SLP161 P0001 60004 T01560144 50003
KBDR Del/Gnd/Twr/App Igor I Sikorsky Memorial Airport (Bridgeport, US-CT)
kbdrNearest METAR:
KBDR 260304Z AUTO 23007KT 1SM BR VV003 06/05 A2974 RMK AO2 T00560050
Boston App/Dep (North Sat) #1 Laurence G Hanscom Field Airport (Bedford, US-MA)
kbedNearest METAR:
KBED 260251Z 08003KT 8SM OVC006 08/06 A2972 RMK AO2 RAE45 SLP080 P0012 60045 T00780061 56052 $
KBGM Del/Gnd/Twr/App Greater Binghamton Airport/Edwin A Link Field (Binghamton, US-NY)
kbgmNearest METAR:
KBGM 260301Z 28006KT 1 1/2SM -SN BR OVC002 00/00 A2976 RMK AO2 P0000 T00000000 $
KBGR Del/Gnd/Twr Bangor International Airport (Bangor, US-ME)
kbgrNearest METAR:
KBGR 260253Z 07010KT 10SM OVC009 02/M01 A3005 RMK AO2 PRESFR SLP177 T00171006 58043
KBID CTAF Block Island State Airport (Block Island, US-RI)
kbidNearest METAR:
KBID 260320Z AUTO 24014G19KT 3/4SM BR OVC003 08/08 A2974 RMK AO2
KBNW CTAF Boone Municipal Airport (Boone, US-IA)
kbnwNearest METAR:
KBNW 260315Z AUTO 00000KT 1/4SM FZFG BKN014 BKN037 M08/M08 A2998 RMK AO2
MA/NH/RI/CT Area CTAF Fitchburg Municipal Airport (Fitchburg, US-MA)
ksfzNearest METAR:
KSFZ 260256Z AUTO 17007G17KT 130V230 5SM -RA BR OVC003 11/10 A2971 RMK AO2 SLP010 P0010 60058 T01060100 56035
MA/NH/RI/CT Area CTAF Fitchburg Municipal Airport (Fitchburg, US-MA)
kpymNearest METAR:
KPYM 260327Z AUTO 17007KT 1 1/2SM +RA BR BKN006 OVC018 11/10 A2974 RMK AO2 P0035 T01060100
KBTL/KAZO Gnd/Twr/App Kalamazoo/Battle Creek International Airport (Kalamazoo, US-MI)
kazoNearest METAR:
KAZO 260253Z 23005KT 5SM -SN BR OVC006 01/M01 A2982 RMK AO2 SLP108 P0000 60001 T00111006 51005
KBVI Ground/Tower Beaver County Airport (Beaver Falls, US-PA)
kbviNearest METAR:
KBVI 260316Z AUTO 24007KT 2 1/2SM -SN OVC007 01/00 A2986 RMK AO2 T00080000
KBVY Tower #1 Beverly Municipal Airport (Beverly, US-MA)
kbvyNearest METAR:
KBVY 260323Z AUTO 12013G23KT 2 1/2SM RA BR OVC003 08/07 A2973 RMK AO2 P0016 T00780067 $
KCAK Del/Gnd/Twr/App Akron-Canton Regional Airport (Akron, US-OH)
kcakNearest METAR:
KCAK 260251Z 24008KT 2SM -SN BR FEW006 BKN009 OVC026 01/M01 A2985 RMK AO2 SLP118 P0000 60002 T00111011 58003
KCMH Twr/App Port Columbus International Airport (Columbus, US-OH)
kcmhNearest METAR:
KCMH 260251Z 24010KT 5SM -SN BR OVC010 01/M01 A2992 RMK AO2 SLP138 P0000 60003 T00061006 58001
KCRQ Tower Mc Clellan-Palomar Airport (Carlsbad, US-CA)
kcrqNearest METAR:
KCRQ 260253Z 00000KT 2 1/2SM BR OVC005 13/12 A3008 RMK AO2 SLP184 T01280117 53017 $
KCVG Approach (Class B) Cincinnati/Northern Kentucky International Airport (Covington, US-KY)
kcvgNearest METAR:
KCVG 260252Z 24009KT 6SM BR OVC009 01/M02 A2998 RMK AO2 SLP158 60001 T00061017 51005
KDAY Del/Gnd/Twr/App James M Cox Dayton International Airport (Dayton, US-OH)
kdayNearest METAR:
KDAY 260323Z 25015KT 4SM -SN BR BKN009 OVC012 01/M02 A2995 RMK AO2 PK WND 26026/0312 P0000 T00061017 $
KDLH Gnd/Twr/App Duluth International Airport (Duluth, US-MN)
kdlhNearest METAR:
KDLH 260255Z 31007KT 10SM OVC009 M02/M04 A2987 RMK AO2 SLP136 T10221044 58001
KDPA Del/Gnd/Twr/Misc Dupage Airport (Chicago, US-IL)
kdpaNearest METAR:
KDPA 260252Z 27010KT 7SM OVC007 01/M01 A2988 RMK AO2 SLP127 60000 T00061011 53004
KDTW Approach Detroit Metropolitan Wayne County Airport (Detroit, US-MI)
kdtwNearest METAR:
KDTW 260318Z 22011KT 4SM -SN BR BKN008 OVC035 01/01 A2980 RMK AO2 P0000 T00060006 $
KDXR Ground/Tower Danbury Municipal Airport (Danbury, US-CT)
kdxrNearest METAR:
KDXR 260253Z 27005KT 3SM BR OVC005 04/04 A2974 RMK AO2 SLP073 60000 T00440044 55003
KFHR CTAF Friday Harbor Airport (Friday Harbor, US-WA)
WX MAP UNAVAILABLENearest METAR:
KFHR 260322Z AUTO 03004KT 10SM OVC009 08/07 A2995 RMK AO2 CIG 009V013 T00780067
KFSD Twr/App/Dep/ZMP Joe Foss Field Airport (Sioux Falls, US-SD)
kfsdNearest METAR:
KFSD 260304Z 00000KT 6SM BR OVC004 M03/M04 A2995 RMK AO2 T10281044
KGEG Del/Gnd/Twr/App Spokane International Airport (Spokane, US-WA)
kgegNearest METAR:
KGEG 260253Z 06005KT 1/2SM R21/4000VP6000FT FG VV002 03/02 A3005 RMK AO2 SLP190 T00330022 51007
KGFK ATIS Grand Forks International Airport (Grand Forks, US-ND)
kgfkNearest METAR:
KGFK 260253Z 19012KT 10SM OVC006 M06/M08 A2992 RMK AO2 SLP147 T10611078 55002
KGJT Gnd/Twr/App/ZDV Grand Junction Regional Airport (Grand Junction, US-CO)
kgjtNearest METAR:
KGJT 260253Z 34006KT 10SM OVC005 M01/M03 A3024 RMK AO2 SLP260 T10111033 51012
KGRR Del/Gnd/Twr/App Gerald R. Ford International Airport (Grand Rapids, US-MI)
kgrrNearest METAR:
KGRR 260325Z 25009KT 2SM BR OVC003 01/01 A2979 RMK AO2 T00110011
KGTU Gnd/Twr Georgetown Municipal Airport (Georgetown, US-TX)
kgtuNearest METAR:
KGTU 260256Z 15006KT 10SM OVC008 15/13 A3005 RMK AO2 CIG 006V009 SLP176 60000 T01500133 51005
KGUS Del/Gnd/Twr/App Grissom Air Reserve Base (Peru, US-IN)
kgusNearest METAR:
KGUS 260313Z 26011KT 3SM FZDZ BR OVC006 00/00 A2990 RMK AO2A SLP136 $
KHFD Ground/Tower Hartford-Brainard Airport (Hartford, US-CT)
khfdNearest METAR:
KHFD 260303Z 00000KT 3/4SM BR OVC003 06/04 A2972 RMK AO2 T00560044
KHUL/KPQI/ZBW01/15 Houlton International Airport (Houlton, US-ME)
kpqiNearest METAR:
KPQI 260256Z AUTO 14005KT 7SM OVC004 M03/M04 A3016 RMK AO2 SNB17E34 SLP250 P0000 60000 T10331039 56015
KHUL/KPQI/ZBW01/15 Houlton International Airport (Houlton, US-ME)
khulNearest METAR:
KHUL 260310Z AUTO VRB04KT 3SM BR OVC004 M03/M04 A3013 RMK AO2 T10281039
KHWV CTAF Brookhaven Airport (Shirley, US-NY)
khwvNearest METAR:
KHWV 260256Z AUTO 24008KT 10SM OVC006 08/07 A2975 RMK AO2 CIG 005V011 SLP074 60000 T00830067 53001 TSNO
KIKV Del/CTAF Ankeny Regional Airport (Ankeny, US-IA)
kikvNearest METAR:
KIKV 260315Z AUTO 00000KT M1/4SM FZFG VV000 M08/M09 A3002 RMK AO2
KIND Ground Indianapolis International Airport (Indianapolis, US-IN)
kindNearest METAR:
KIND 260254Z 25013KT 4SM -SN BR OVC011 00/M01 A2997 RMK AO2 SNB26 SLP156 P0000 60000 I3000 T00001011 51004 $
KIPT Gnd/Twr/ZNY Williamsport Regional Airport (Williamsport, US-PA)
kiptNearest METAR:
KIPT 260306Z 12004KT 1/4SM FG BKN002 OVC031 00/M01 A2983 RMK AO2 I1000 T00001011 $
KISP (NY Approach) Long Island Mac Arthur Airport (Islip, US-NY)
kispNearest METAR:
KISP 260256Z 26010KT 10SM OVC008 08/07 A2974 RMK AO2 SLP072 T00780072 53003
KJXN Del/Gnd/Twr/App Jackson County Airport-Reynolds Field (Jackson, US-MI)
kjxnNearest METAR:
KJXN 260256Z AUTO 23008KT 9SM OVC008 01/M01 A2979 RMK AO2 SLP098 60000 T00061011 51001
KLAF Tower Purdue University Airport (Lafayette, US-IN)
klafNearest METAR:
KLAF 260254Z AUTO 25008KT 9SM OVC009 00/M01 A2994 RMK AO2 SNE01 SLP146 P0000 60000 T00001011 51001
KLAN Del/Gnd/Twr/App Capital Region International Airport (Lansing, US-MI)
klanNearest METAR:
KLAN 260321Z 24008KT 2 1/2SM BR OVC003 01/M01 A2978 RMK AO2 T00061006
KLBX CTAF Texas Gulf Coast Regional Airport (Angleton/Lake Jackson, US-TX)
klbxNearest METAR:
KLBX 260327Z AUTO 16014G18KT 10SM FEW015 BKN022 OVC036 18/16 A3005 RMK AO2 LTG DSNT SE AND S RAE25 P0000 T01780156
KLCI Del/CTAF Laconia Municipal Airport (Laconia, US-NH)
klciNearest METAR:
KLCI 260325Z AUTO 06017G25KT 1 3/4SM -SN BR SCT009 BKN048 OVC060 02/02 A2978 RMK AO2 PK WND 07028/0301 UPB07E16SNE07B16 P0011 FZRANO
KLWM Ground/Tower Lawrence Municipal Airport (Lawrence, US-MA)
klwmNearest METAR:
KLWM 260254Z 11010G26KT 090V150 9SM -RA OVC007 08/07 A2976 RMK AO2 PK WND 12026/0251 CIG 006V011 SLP077 P0015 60058 T00830067 56064 $
KMDW Tower #1 Chicago Midway International Airport (Chicago, US-IL)
kmdwNearest METAR:
KMDW 260253Z 28010KT 5SM -DZSN BR OVC008 01/M01 A2989 RMK AO2 DZB13SNB13 SLP131 P0000 60000 T00111006 50006
KMGY Air to Air Dayton-Wright Brothers Airport (Dayton, US-OH)
kmgyNearest METAR:
KMGY 260253Z AUTO 24015G22KT 6SM BR OVC009 01/M01 A2994 RMK AO2 CIG 007V012 SLP146 60001 I1001 I3001 T00061011 50000
KMTC App/Dep Selfridge Air National Guard Base (Mount Clemens, US-MI)
kmtcNearest METAR:
KMTC 260304Z 21005KT 10SM -SN BKN008 OVC042 01/01 A2977 RMK AO2A SLP092 $
KMTC Area CTAF St Clair County International Airport (Port Huron, US-MI)
kphnNearest METAR:
KPHN 260315Z AUTO 21003KT 4SM -SN OVC006 01/00 A2977 RMK AO2
KMVY Del/Gnd/Twr Martha's Vineyard Airport (Vineyard Haven, US-MA)
kmvyNearest METAR:
KMVY 260317Z AUTO 15018G24KT 1 3/4SM R24/4000VP6000FT +RA BR OVC003 10/09 A2973 RMK AO2 PK WND 15027/0304 P0017 T01000094
KOFF Gnd/Twr/App/ZMP Offutt Air Force Base (Omaha, US-NE)
koffNearest METAR:
KOFF 260256Z 17005KT 10SM OVC004 M02/M03 A3003 RMK AO2A SLP189 RVRNO $
KOGD Ogden Ground/Tower Ogden-Hinckley Airport (Ogden, US-UT)
kogdNearest METAR:
KOGD 260253Z 00000KT 1/4SM FG VV001 02/01 A3019 RMK AO2 SLP227 T00220011 53004
KOMA Del/Gnd/Twr Eppley Airfield (Omaha, US-NE)
komaNearest METAR:
KOMA 260252Z 22003KT 6SM BR OVC007 M02/M03 A3001 RMK AO2 SLP176 T10171033 50003
KORD Ground Chicago O'Hare International Airport (Chicago, US-IL)
kordNearest METAR:
KORD 260251Z 26008KT 5SM -FZDZSN BR OVC006 00/M01 A2987 RMK AO2 DZB13E50FZDZB50 SLP122 P0000 60000 I1000 I3000 T00001006 51007
FSS (Central MA) Worcester Regional Airport (Worcester, US-MA)
korhNearest METAR:
KORH 260254Z 02007KT 1 3/4SM -RA BR OVC003 04/04 A2971 RMK AO2 SLP069 P0006 60068 T00440039 56025
KOSU Ground/Tower Ohio State University Airport (Columbus, US-OH)
kosuNearest METAR:
KOSU 260253Z 23011KT 9SM OVC009 01/M01 A2991 RMK AO2 UPB36E39SNE36 SLP137 P0001 60002 T00061011 51001
KOXC Ground/Tower Waterbury-Oxford Airport (Oxford, US-CT)
koxcNearest METAR:
KOXC 260251Z AUTO 00000KT 1/4SM FG OVC002 05/05 A2971 RMK AO2 SLP078 60006 T00500050 56007
KPSM Gnd/Twr/App/GCA Portsmouth International Airport at Pease (Portsmouth, US-NH)
kpsmNearest METAR:
KPSM 260321Z 13007KT 2 1/2SM +RA BR OVC005 07/07 A2978 RMK A02A SLP088
KPTK App/Dep Oakland County International Airport (Pontiac, US-MI)
kptkNearest METAR:
KPTK 260253Z 24006KT 6SM -SN BR OVC007 01/M01 A2976 RMK AO2 SLP086 P0000 60001 T00061011 58002 $
KPVC CTAF Provincetown Municipal Airport (Provincetown, US-MA)
kpvcNearest METAR:
KPVC 260256Z AUTO 13015G19KT 5SM -RA BR OVC005 09/08 A2976 RMK AO2 CIG 003V008 PRESFR SLP076 6//// T00890083 58049 PNO $
KPVD Clearance Delivery Theodore Francis Green State Airport (Providence, US-RI)
kpvdNearest METAR:
KPVD 260251Z 17013G21KT 2 1/2SM -RA BR OVC005 10/10 A2972 RMK AO2 PK WND 15028/0154 TWR VIS 3 SLP065 CIG 004V013 P0004 60033 T01000100 55028
KPWK Del/Gnd/Tower Chicago Executive Airport (Chicago/Prospect Heights/Wheeling, US-IL)
kpwkNearest METAR:
KPWK 260252Z 27007KT 9SM OVC008 02/M01 A2989 RMK AO2 SLP126 T00171006 51010
KPWM Gnd/Twr/App Portland International Jetport (Portland, US-ME)
kpwmNearest METAR:
KPWM 260321Z 09017G29KT 1 3/4SM +RA BR OVC004 05/03 A2987 RMK AO2 PK WND 10029/0313 PRESRR P0007 T00500033
KSAT Tower San Antonio International Airport (San Antonio, US-TX)
ksatNearest METAR:
KSAT 260327Z 10003KT 3SM BR OVC003 16/15 A3002 RMK AO2 RAE09 P0000 T01560150
KSBA Tower Santa Barbara Municipal Airport (Santa Barbara, US-CA)
ksbaNearest METAR:
KSBA 260327Z 27003KT 1SM BR VV003 11/11 A3007 RMK AO2 T01110106 RVRNO
KSLC Approach/Departure Salt Lake City International Airport (Salt Lake City, US-UT)
kslcNearest METAR:
KSLC 260254Z 00000KT 1/4SM R16L/1000V1600FT FG VV002 03/03 A3020 RMK AO2 SLP224 T00280028 53005
KSUX Twr/App/ZMP Sioux Gateway Airport/Col. Bud Day Field (Sioux City, US-IA)
ksuxNearest METAR:
KSUX 260252Z 19004KT 7SM OVC006 A2999 RMK AO2 SLPNO 52003 $
KTOL Del/Gnd/Twr/App Toledo Express Airport (Toledo, US-OH)
ktolNearest METAR:
KTOL 260252Z 23010KT 4SM BR OVC008 01/M01 A2984 RMK AO2 CIG 006V010 SLP111 T00111011 50003 $
KTVC Gnd/Twr/ZMP Cherry Capital Airport (Traverse City, US-MI)
ktvcNearest METAR:
KTVC 260314Z AUTO 00000KT 6SM BR OVC004 02/01 A2975 RMK AO2 T00220006 $
KUES Del/Gnd/Twr Capitol Airport (Brookfield, US-WI)
kuesNearest METAR:
KUES 260315Z AUTO 28007KT 10SM OVC007 00/M01 A2985 RMK AO2
KUUU CTAF/Del Newport State Airport (Newport, US-RI)
kuuuNearest METAR:
KUUU 260318Z AUTO 19010KT 1 1/4SM BR OVC002 09/09 A2971 RMK AO2 RAE11 P0000 T00940089
KVPZ CTAF/Clearance/App Porter County Regional Airport (Valparaiso, US-IN)
kvpzNearest METAR:
KVPZ 260256Z AUTO 26010KT 6SM BR OVC007 00/M02 A2989 RMK AO2 SLP129 60000 T00001017 51005
LHPR Info/AFIS Gyor-Per International Airport (Gyor, Hungary)
WX MAP UNAVAILABLENearest METAR:
LHPR 260245Z AUTO 11006KT 1400 R30/P1500 BR VV002 M02/M02 Q1023
LJMB Tower/Approach Maribor Edvard Rusjan Airport (Maribor, Slovenia)
WX MAP UNAVAILABLENearest METAR:
LJMB 260300Z AUTO 35003KT 0100 R32/0400 FZFG VV002 M02/M02 Q1022
LKAA FIR (High) Prague Vaclav Havel Airport (Prague, Czech Republic)
WX MAP UNAVAILABLENearest METAR:
LKPR 260300Z VRB02KT 3800 BR SCT007 OVC008 M01/M02 Q1020 NOSIG
LKTB Gnd/Twr/Radar Brno-Turany Airport (Brno, Czech Republic)
WX MAP UNAVAILABLENearest METAR:
LKTB 260300Z 15003KT 130V190 9000 OVC006 M01/M02 Q1022 R27/29//95 NOSIG
LSZB Twr/App/Dep Bern-Belp Airport (Bern, Switzerland)
WX MAP UNAVAILABLENearest METAR:
LSZB 260320Z AUTO VRB01KT 0150 R14/0200N FZFG VV001 M03/M03 Q1020
LSZG Tower Grenchen Airport (Grenchen, Switzerland)
WX MAP UNAVAILABLENearest METAR:
LSZG 260320Z AUTO 23002KT 0200 FZFG VV001 M01/M01 Q1020
LSZH Approach (East) Zurich International Airport (Zurich, Switzerland)
WX MAP UNAVAILABLENearest METAR:
LSZH 260320Z 07001KT 0400 R14/0600N R16/0700N R28/0550N R34/0650N FZFG VV001 M02/M02 Q1020 NOSIG
LSMD Tower Dubendorf Air Base (Dubendorf, Switzerland)
WX MAP UNAVAILABLENearest METAR:
LSMD 260320Z AUTO 00000KT 0350NDV R11/0400N R29/0400N FG VV001 M01/M01 Q1020 RMK
LSZR Tower St. Gallen-Altenrhein Airport (Altenrhein, Switzerland)
WX MAP UNAVAILABLENearest METAR:
LSZR 260320Z AUTO 10004KT 0150 R10/0175N FG VV001 00/M00 Q1020 REFZDZ
LZKZ Gnd/Twr/App Kosice International Airport (Kosice, Slovakia)
WX MAP UNAVAILABLENearest METAR:
LZKZ 260300Z 20003KT 150V230 8000 OVC008 M04/M05 Q1023
LZPP Ground/Tower Piestany Airport (Piestany, Slovakia)
WX MAP UNAVAILABLENearest METAR:
LZPP 260300Z AUTO 14004KT 5000 BR OVC004/// M01/M02 Q1023
PASC CTAF/Unicom/AFIS/App Deadhorse Airport (Deadhorse, US-AK)
WX MAP UNAVAILABLENearest METAR:
PASC 260253Z 23018KT 3SM -SN BR BKN038 OVC065 M32/M36 A3031 RMK AO2 SNB45 SLP266 T13221361 57004
RODN Gnd/Twr/App Kadena Air Base (Okinawa, Japan)
WX MAP UNAVAILABLENearest METAR:
RODN 260316Z 09017G22KT 2 1/2SM -DZ BR OVC005 22/21 A2987 RMK AO2A VIS 2 1/2V3 VIS 1 5/8 RWY23 RAE06DZB06 SLP121 $
ROTM Gnd/Twr MCAS Futenma (Okinawa, Japan)
WX MAP UNAVAILABLENearest METAR:
ROTM 260303Z 10017G25KT 1SM -RA BR OVC004 21/20 A2989 RMK AO2 P0000 T02110200 $
UAAA Tower/Approach Almaty International Airport (Almaty, Kazakhstan)
WX MAP UNAVAILABLENearest METAR:
UAAA 260300Z 28003MPS 5000 -SN BR BKN006 OVC018 M02/M03 Q1023 R23R/2/0150 R23L/2/0145 NOSIG RMK QBB200
USTR Gnd/Twr/App Roshchino International Airport (Tyumen, Russia)
WX MAP UNAVAILABLENearest METAR:
USTR 260300Z 16004MPS 6000 -SN OVC025 M15/M17 Q0993 R21/450155 R30/450250 BECMG 2100 -SN OVC011 RMK QFE735/0981
YSSY Approach (North/East) Sydney International Airport (Sydney, AU-NSW)
WX MAP UNAVAILABLENearest METAR:
YSSY 260300Z 05015KT CAVOK 35/22 Q1009 TEMPO 0330/0600 VRB15G25KT 3000 TSRA SCT015 SCT060CB